Time;durP1;ratioP1;P1;durP2;ratioP2;P2;SDS_P1;SDS_P2;PMS_P1;PMS_P2;Temp;Humidity;BMP_temperature;BMP_pressure;BME280_temperature;BME280_humidity;BME280_pressure;Samples;Min_cycle;Max_cycle;Signal;HPM_P1;HPM_P2
2022/01/17 00:01:08;;;;;;;24.98;3.05;;;5.90;99.90;;;;;;5002459;28;20076;-70
2022/01/17 00:03:35;;;;;;;17.67;2.33;;;5.80;99.90;;;;;;5036698;28;20045;-70
2022/01/17 00:06:01;;;;;;;20.75;3.03;;;5.70;99.90;;;;;;4999876;28;89577;-70
2022/01/17 00:08:27;;;;;;;18.23;2.28;;;5.70;99.90;;;;;;5030612;28;20052;-70
2022/01/17 00:10:53;;;;;;;21.63;2.30;;;5.70;99.90;;;;;;5009899;28;247719;-70
2022/01/17 00:13:27;;;;;;;18.05;2.78;;;5.60;99.90;;;;;;5011978;28;20049;-70
2022/01/17 00:16:03;;;;;;;24.13;2.90;;;5.50;99.90;;;;;;5017257;28;189764;-70
2022/01/17 00:21:07;;;;;;;25.83;2.67;;;5.50;99.90;;;;;;5008805;28;20053;-70
2022/01/17 00:23:33;;;;;;;20.17;2.13;;;5.50;99.90;;;;;;5031448;28;20060;-70
2022/01/17 00:26:00;;;;;;;25.23;2.88;;;5.40;99.90;;;;;;5001362;28;164522;-69
2022/01/17 00:28:26;;;;;;;23.85;2.50;;;5.40;99.90;;;;;;5029380;28;20049;-70
2022/01/17 00:30:52;;;;;;;17.75;2.15;;;5.40;99.90;;;;;;5000873;28;93696;-70
2022/01/17 00:33:18;;;;;;;20.48;2.60;;;5.40;99.90;;;;;;5049518;28;20060;-70
2022/01/17 00:35:44;;;;;;;17.67;2.25;;;5.40;99.90;;;;;;5029972;28;267294;-70
2022/01/17 00:38:12;;;;;;;21.23;2.75;;;5.40;99.90;;;;;;5032208;28;20044;-69
2022/01/17 00:40:42;;;;;;;24.23;2.88;;;5.40;99.90;;;;;;5012313;28;164534;-70
2022/01/17 00:43:09;;;;;;;17.00;2.13;;;5.40;99.90;;;;;;5031190;28;20056;-71
2022/01/17 00:45:37;;;;;;;17.45;2.58;;;5.40;99.90;;;;;;5026929;28;258201;-70
2022/01/17 00:48:04;;;;;;;14.43;2.25;;;5.40;99.90;;;;;;5048883;28;20060;-71
2022/01/17 00:50:31;;;;;;;21.10;2.47;;;5.40;99.90;;;;;;5031271;28;256517;-70
2022/01/17 00:53:03;;;;;;;21.05;3.03;;;5.40;99.90;;;;;;5036542;28;20053;-69
2022/01/17 00:55:29;;;;;;;;;;;5.40;99.90;;;;;;5018002;28;137491;-70
2022/01/17 00:57:55;;;;;;;21.77;3.22;;;5.40;99.90;;;;;;5045925;28;20301;-69
2022/01/17 01:00:22;;;;;;;22.52;2.33;;;5.40;99.90;;;;;;4998631;28;274400;-69
2022/01/17 01:02:48;;;;;;;23.70;2.67;;;5.40;99.90;;;;;;5049345;28;20049;-69
2022/01/17 01:05:14;;;;;;;19.27;2.70;;;5.40;99.90;;;;;;5009639;28;286096;-70
2022/01/17 01:07:40;;;;;;;20.23;2.40;;;5.50;99.90;;;;;;5048560;28;20071;-70
2022/01/17 01:10:10;;;;;;;18.40;2.13;;;5.50;99.90;;;;;;5011808;28;171767;-70
2022/01/17 01:12:41;;;;;;;20.02;2.70;;;5.40;99.90;;;;;;5031150;28;20649;-70
2022/01/17 01:15:12;;;;;;;;;;;5.40;99.90;;;;;;5016015;28;182478;-70
2022/01/17 01:17:53;;;;;;;24.38;2.70;;;5.40;99.90;;;;;;5028648;28;19917;-69
2022/01/17 01:21:03;;;;;;;26.98;2.95;;;5.40;99.90;;;;;;5011113;28;98184;-70
2022/01/17 01:28:51;;;;;;;23.20;3.00;;;5.40;99.90;;;;;;5012710;28;271328;-70
2022/01/17 01:31:28;;;;;;;23.98;2.70;;;5.50;99.90;;;;;;5046737;28;20053;-70
2022/01/17 01:34:02;;;;;;;26.67;3.25;;;5.50;99.90;;;;;;5015991;28;251176;-70
2022/01/17 01:36:29;;;;;;;24.60;2.90;;;5.50;99.90;;;;;;5028998;28;20061;-69
2022/01/17 01:38:55;;;;;;;30.88;3.30;;;5.50;99.90;;;;;;5013141;28;257296;-70
2022/01/17 01:41:22;;;;;;;17.63;2.83;;;5.40;99.90;;;;;;5028301;28;20060;-69
2022/01/17 01:43:48;;;;;;;20.70;3.20;;;5.40;99.90;;;;;;5012714;28;264746;-70
2022/01/17 01:46:18;;;;;;;22.80;2.85;;;5.40;99.90;;;;;;5044962;28;20045;-69
2022/01/17 01:48:44;;;;;;;23.85;2.80;;;5.40;99.90;;;;;;5023166;28;258340;-69
2022/01/17 01:51:11;;;;;;;20.90;2.20;;;5.30;99.90;;;;;;5044300;28;20429;-70
2022/01/17 01:53:38;;;;;;;25.30;3.22;;;5.30;99.90;;;;;;5011863;28;266348;-69
2022/01/17 01:56:05;;;;;;;19.75;2.67;;;5.30;99.90;;;;;;5019486;28;20068;-70
2022/01/17 01:58:31;;;;;;;20.77;2.90;;;5.20;99.90;;;;;;5044329;28;20049;-70
2022/01/17 02:00:59;;;;;;;22.92;2.55;;;5.20;99.90;;;;;;5014201;28;168913;-70
2022/01/17 02:03:25;;;;;;;22.20;2.80;;;5.20;99.90;;;;;;5029933;28;20057;-71
2022/01/17 02:05:51;;;;;;;21.33;2.25;;;5.20;99.90;;;;;;5012074;28;274353;-69
2022/01/17 02:08:17;;;;;;;17.63;2.88;;;5.20;99.90;;;;;;5031114;28;20055;-69
2022/01/17 02:10:43;;;;;;;21.50;3.10;;;5.10;99.90;;;;;;5011014;28;256175;-69
2022/01/17 02:13:09;;;;;;;24.48;3.13;;;5.10;99.90;;;;;;5046048;28;20072;-71
2022/01/17 02:15:40;;;;;;;19.13;2.38;;;5.00;99.90;;;;;;5010921;28;252509;-71
2022/01/17 02:18:08;;;;;;;24.63;2.90;;;5.00;99.90;;;;;;5048706;28;20056;-70
2022/01/17 02:20:44;;;;;;;22.20;2.42;;;4.90;99.90;;;;;;5008567;28;194920;-70
2022/01/17 02:23:13;;;;;;;28.10;2.65;;;4.90;99.90;;;;;;5030169;28;20045;-70
2022/01/17 02:25:39;;;;;;;25.48;3.13;;;4.90;99.90;;;;;;5015271;28;83897;-70
2022/01/17 02:28:06;;;;;;;20.88;3.42;;;4.80;99.90;;;;;;5030195;28;20053;-70
2022/01/17 02:30:32;;;;;;;26.15;3.15;;;4.80;99.90;;;;;;5022328;28;249190;-70
2022/01/17 02:33:00;;;;;;;26.50;2.83;;;4.90;99.90;;;;;;5028921;28;20497;-70
2022/01/17 02:35:26;;;;;;;26.95;3.05;;;4.80;99.90;;;;;;5027530;28;273537;-71
2022/01/17 02:37:52;;;;;;;24.80;3.30;;;4.90;99.90;;;;;;5046134;28;20092;-71
2022/01/17 02:40:20;;;;;;;17.67;2.63;;;4.90;99.90;;;;;;5009884;28;239245;-70
2022/01/17 02:43:00;;;;;;;27.75;3.30;;;4.80;99.90;;;;;;5030093;28;21264;-71
2022/01/17 02:45:37;;;;;;;23.95;3.40;;;4.80;99.90;;;;;;5017949;28;83545;-70
2022/01/17 02:48:09;;;;;;;21.15;2.70;;;4.80;99.90;;;;;;5030494;28;20049;-70
2022/01/17 02:50:36;;;;;;;26.33;2.67;;;4.80;99.90;;;;;;5011615;28;169762;-71
2022/01/17 02:53:04;;;;;;;26.65;3.30;;;4.80;99.90;;;;;;5046198;28;20052;-71
2022/01/17 02:55:31;;;;;;;21.38;3.15;;;4.80;99.90;;;;;;5011676;28;114050;-71
2022/01/17 02:57:57;;;;;;;25.25;3.13;;;4.80;99.90;;;;;;5029334;28;20057;-70
2022/01/17 03:00:24;;;;;;;21.73;2.50;;;4.80;99.90;;;;;;5023040;28;271200;-71
2022/01/17 03:02:50;;;;;;;21.92;3.30;;;4.80;99.90;;;;;;5025669;28;20045;-71
2022/01/17 03:05:17;;;;;;;30.17;3.30;;;4.70;99.90;;;;;;5004033;28;97972;-70
2022/01/17 03:07:44;;;;;;;20.27;2.67;;;4.70;99.90;;;;;;5044228;28;20051;-70
2022/01/17 03:10:22;;;;;;;29.90;3.42;;;4.70;99.90;;;;;;5024443;28;260837;-69
2022/01/17 03:12:48;;;;;;;22.75;2.97;;;4.70;99.90;;;;;;5056840;22;20071;-69
2022/01/17 03:15:14;;;;;;;25.50;2.78;;;4.70;99.90;;;;;;5054692;28;148836;-67
2022/01/17 03:17:41;;;;;;;24.58;2.83;;;4.70;99.90;;;;;;5075464;28;20416;-68
2022/01/17 03:20:07;;;;;;;24.70;2.92;;;4.70;99.90;;;;;;5072223;28;258286;-68
2022/01/17 03:22:34;;;;;;;22.23;3.13;;;4.80;99.90;;;;;;5080951;28;20055;-68
2022/01/17 03:25:00;;;;;;;27.92;3.47;;;4.80;99.90;;;;;;5064064;28;255832;-69
2022/01/17 03:27:26;;;;;;;27.63;2.70;;;4.70;99.90;;;;;;5087550;28;20432;-69
2022/01/17 03:29:52;;;;;;;23.17;2.70;;;4.70;99.90;;;;;;5051688;28;100474;-69
2022/01/17 03:32:18;;;;;;;30.92;3.17;;;4.80;99.90;;;;;;5086442;28;20059;-69
2022/01/17 03:34:44;;;;;;;21.63;2.50;;;4.80;99.90;;;;;;5055872;28;52307;-68
2022/01/17 03:37:10;;;;;;;20.35;2.97;;;4.80;99.90;;;;;;5086898;28;20052;-69
2022/01/17 03:39:36;;;;;;;23.27;2.95;;;4.80;99.90;;;;;;5062667;28;258868;-69
2022/01/17 03:42:02;;;;;;;25.35;3.05;;;4.90;99.90;;;;;;5046358;28;20684;-69
2022/01/17 03:44:29;;;;;;;23.23;2.45;;;4.90;99.90;;;;;;5030482;28;187622;-69
2022/01/17 03:46:55;;;;;;;22.45;3.00;;;4.90;99.90;;;;;;5086554;28;20074;-69
2022/01/17 03:49:21;;;;;;;29.33;3.13;;;5.00;99.90;;;;;;5069754;28;257259;-68
2022/01/17 03:51:47;;;;;;;23.73;2.78;;;5.00;99.90;;;;;;5068977;28;20055;-70
2022/01/17 03:54:14;;;;;;;22.55;2.65;;;5.10;99.90;;;;;;5069825;28;264927;-69
2022/01/17 03:56:40;;;;;;;21.95;2.63;;;5.20;99.90;;;;;;5073636;28;20530;-70
2022/01/17 03:59:06;;;;;;;20.40;2.03;;;5.20;99.90;;;;;;5062685;28;42808;-70
2022/01/17 04:01:32;;;;;;;23.52;2.55;;;5.20;99.90;;;;;;5089072;28;20051;-70
2022/01/17 04:03:58;;;;;;;20.45;2.63;;;5.30;99.90;;;;;;5033326;28;260706;-70
2022/01/17 04:06:26;;;;;;;19.17;2.58;;;5.30;99.90;;;;;;5077797;28;20067;-70
2022/01/17 04:08:52;;;;;;;23.67;2.60;;;5.20;99.90;;;;;;5066356;28;266279;-70
2022/01/17 04:11:18;;;;;;;18.58;2.50;;;5.30;99.90;;;;;;5086979;28;20056;-69
2022/01/17 04:13:45;;;;;;;24.25;3.05;;;5.30;99.90;;;;;;5071012;28;269345;-70
2022/01/17 04:16:12;;;;;;;21.85;2.70;;;5.30;99.90;;;;;;5087732;28;20032;-69
2022/01/17 04:18:38;;;;;;;24.85;2.72;;;5.30;99.90;;;;;;5053187;28;256684;-70
2022/01/17 04:21:04;;;;;;;20.33;2.50;;;5.20;99.90;;;;;;5068573;28;20047;-69
2022/01/17 04:23:30;;;;;;;13.85;1.92;;;5.20;99.90;;;;;;5087956;28;20044;-69
2022/01/17 04:25:57;;;;;;;24.98;3.35;;;5.20;99.90;;;;;;5057756;28;62479;-70
2022/01/17 04:28:23;;;;;;;24.00;3.38;;;5.20;99.90;;;;;;5087477;28;20056;-69
2022/01/17 04:30:49;;;;;;;21.25;2.58;;;5.20;99.90;;;;;;5065852;28;260710;-69
2022/01/17 04:33:15;;;;;;;20.77;2.95;;;5.20;99.90;;;;;;5085960;28;20048;-70
2022/01/17 04:35:43;;;;;;;23.25;3.15;;;5.30;99.90;;;;;;5068661;28;260810;-69
2022/01/17 04:38:13;;;;;;;22.88;2.70;;;5.20;99.90;;;;;;5088181;28;20412;-69
2022/01/17 04:40:40;;;;;;;18.40;2.83;;;5.20;99.90;;;;;;5068809;28;253244;-70
2022/01/17 04:43:19;;;;;;;19.77;2.42;;;5.30;99.90;;;;;;5067365;28;20059;-70
2022/01/17 04:45:47;;;;;;;18.10;2.38;;;5.30;99.90;;;;;;5034604;28;206191;-69
2022/01/17 04:48:14;;;;;;;16.92;2.47;;;5.40;99.90;;;;;;5087311;28;20047;-68
2022/01/17 04:50:40;;;;;;;22.52;2.70;;;5.50;99.90;;;;;;5068080;28;255716;-69
2022/01/17 04:53:08;;;;;;;20.17;2.88;;;5.50;99.90;;;;;;5085363;28;20554;-68
2022/01/17 04:55:36;;;;;;;23.33;2.85;;;5.60;99.90;;;;;;5067779;28;273717;-69
2022/01/17 04:58:03;;;;;;;20.63;2.83;;;5.60;99.90;;;;;;5052346;28;20063;-68
2022/01/17 05:00:29;;;;;;;22.85;3.08;;;5.70;99.90;;;;;;5040762;28;71618;-69
2022/01/17 05:02:55;;;;;;;19.95;2.80;;;5.70;99.90;;;;;;5097608;28;20062;-67
2022/01/17 05:05:22;;;;;;;22.02;2.42;;;5.80;99.90;;;;;;5050364;28;181230;-69
2022/01/17 05:07:48;;;;;;;20.23;2.67;;;5.80;99.90;;;;;;5093280;28;20157;-69
2022/01/17 05:10:16;;;;;;;23.60;3.00;;;5.90;99.90;;;;;;5066103;28;253398;-69
2022/01/17 05:12:44;;;;;;;20.65;2.65;;;5.90;99.90;;;;;;5069303;28;20048;-68
2022/01/17 05:15:23;;;;;;;22.52;2.58;;;5.90;99.90;;;;;;5057475;28;24724;-69
2022/01/17 05:17:59;;;;;;;23.05;3.40;;;6.00;99.90;;;;;;5072511;28;20044;-69
2022/01/17 05:20:25;;;;;;;26.17;2.92;;;5.90;99.90;;;;;;5056157;28;94530;-68
2022/01/17 05:22:52;;;;;;;25.33;3.33;;;6.00;99.90;;;;;;5067216;28;20051;-69
2022/01/17 05:25:19;;;;;;;31.70;3.50;;;6.00;99.90;;;;;;5067163;28;261727;-69
2022/01/17 05:27:45;;;;;;;18.98;3.38;;;6.10;99.90;;;;;;5073511;28;20055;-69
2022/01/17 05:30:14;;;;;;;23.33;3.20;;;6.10;99.90;;;;;;5066536;28;259730;-69
2022/01/17 05:32:41;;;;;;;22.05;3.00;;;6.10;99.90;;;;;;5084140;28;20531;-69
2022/01/17 05:35:09;;;;;;;18.45;2.65;;;6.10;99.90;;;;;;5067793;28;253558;-69
2022/01/17 05:37:35;;;;;;;30.95;3.90;;;6.10;99.90;;;;;;5088532;28;20059;-69
2022/01/17 05:40:03;;;;;;;23.92;3.58;;;6.10;99.90;;;;;;5065646;28;256757;-69
2022/01/17 05:42:30;;;;;;;24.17;3.20;;;6.10;99.90;;;;;;5065446;28;20060;-68
2022/01/17 05:44:56;;;;;;;24.67;3.58;;;6.10;99.90;;;;;;5069739;28;265511;-69
2022/01/17 05:47:22;;;;;;;30.50;4.53;;;6.10;99.90;;;;;;5085646;28;20051;-70
2022/01/17 05:49:49;;;;;;;24.63;3.65;;;6.10;99.90;;;;;;5056849;28;274453;-69
2022/01/17 05:52:15;;;;;;;28.98;3.92;;;6.10;99.90;;;;;;5076682;28;20067;-69
2022/01/17 05:54:42;;;;;;;29.92;4.38;;;6.20;99.90;;;;;;5060977;28;266101;-70
2022/01/17 05:57:08;;;;;;;22.10;3.35;;;6.20;99.90;;;;;;5076414;28;20063;-69
2022/01/17 05:59:35;;;;;;;21.17;3.47;;;6.20;99.90;;;;;;5047555;28;212725;-69
2022/01/17 06:02:01;;;;;;;24.00;4.50;;;6.20;99.90;;;;;;5065946;28;20059;-69
2022/01/17 06:04:27;;;;;;;25.15;4.30;;;6.20;99.90;;;;;;5032925;28;194524;-68
2022/01/17 06:06:53;;;;;;;28.73;3.70;;;6.20;99.90;;;;;;5077493;28;20038;-68
2022/01/17 06:09:19;;;;;;;24.73;4.25;;;6.30;99.90;;;;;;5050392;28;22639;-68
2022/01/17 06:11:45;;;;;;;22.33;4.35;;;6.30;99.90;;;;;;5075908;28;20041;-68
2022/01/17 06:14:16;;;;;;;22.13;4.35;;;6.30;99.90;;;;;;5055193;27;259469;-69
2022/01/17 06:16:44;;;;;;;25.02;4.32;;;6.30;99.90;;;;;;5076529;28;20279;-69
2022/01/17 06:19:11;;;;;;;28.55;4.20;;;6.30;99.90;;;;;;5045754;28;20052;-69
2022/01/17 06:21:37;;;;;;;27.60;4.60;;;6.30;99.90;;;;;;5075946;28;20044;-68
2022/01/17 06:24:06;;;;;;;22.70;3.83;;;6.30;99.90;;;;;;5046043;28;50412;-69
2022/01/17 06:26:39;;;;;;;24.60;4.07;;;6.30;99.90;;;;;;5055924;28;20409;-69
2022/01/17 06:29:07;;;;;;;30.42;4.65;;;6.30;99.90;;;;;;5047633;28;20507;-68
2022/01/17 06:31:33;;;;;;;31.70;5.15;;;6.30;99.90;;;;;;5058201;28;20051;-69
2022/01/17 06:34:00;;;;;;;24.75;4.47;;;6.20;99.90;;;;;;5056664;28;261894;-69
2022/01/17 06:36:26;;;;;;;25.50;4.15;;;6.30;99.90;;;;;;5057478;28;20412;-69
2022/01/17 06:38:53;;;;;;;27.97;4.40;;;6.30;99.90;;;;;;5037449;28;262348;-69
2022/01/17 06:41:19;;;;;;;24.10;4.47;;;6.30;99.90;;;;;;5054274;28;20055;-70
2022/01/17 06:43:46;;;;;;;27.30;4.45;;;6.40;99.90;;;;;;5035261;28;268202;-69
2022/01/17 06:46:14;;;;;;;25.88;4.65;;;6.40;99.90;;;;;;5054075;28;20420;-69
2022/01/17 06:48:41;;;;;;;24.85;4.43;;;6.40;99.90;;;;;;5039335;28;252520;-69
2022/01/17 06:51:07;;;;;;;24.00;4.28;;;6.30;99.90;;;;;;5059027;28;20067;-68
2022/01/17 06:53:33;;;;;;;27.95;5.65;;;6.30;99.90;;;;;;5074033;28;20040;-68
2022/01/17 06:56:00;;;;;;;29.65;5.30;;;6.20;99.90;;;;;;5046580;28;30390;-68
2022/01/17 06:58:27;;;;;;;33.72;4.85;;;6.20;99.90;;;;;;5073619;28;20500;-70
2022/01/17 07:00:54;;;;;;;36.50;5.35;;;6.20;99.90;;;;;;5024643;28;75154;-70
2022/01/17 07:03:21;;;;;;;30.88;4.90;;;6.10;99.90;;;;;;5080338;28;20060;-70
2022/01/17 07:05:47;;;;;;;36.40;5.28;;;6.20;99.90;;;;;;5046961;28;267869;-71
2022/01/17 07:08:13;;;;;;;33.55;5.20;;;6.10;99.90;;;;;;5082708;28;20040;-69
2022/01/17 07:10:39;;;;;;;38.13;4.57;;;6.20;99.90;;;;;;5057584;28;268666;-69
2022/01/17 07:13:05;;;;;;;37.35;5.25;;;6.20;99.90;;;;;;5077022;28;20041;-69
2022/01/17 07:15:31;;;;;;;35.70;5.65;;;6.20;99.90;;;;;;5038947;28;242626;-69
2022/01/17 07:17:58;;;;;;;30.10;4.43;;;6.20;99.90;;;;;;5077688;28;20048;-69
2022/01/17 07:20:24;;;;;;;35.30;5.28;;;6.20;99.90;;;;;;5050724;28;263808;-69
2022/01/17 07:22:51;;;;;;;31.70;4.93;;;6.20;99.90;;;;;;5077274;28;20082;-69
2022/01/17 07:25:17;;;;;;;39.05;5.30;;;6.20;99.90;;;;;;5062095;28;267273;-69
2022/01/17 07:27:44;;;;;;;30.30;4.88;;;6.20;99.90;;;;;;5084487;28;20154;-69
2022/01/17 07:30:11;;;;;;;34.58;4.95;;;6.20;99.90;;;;;;5029315;28;214960;-68
2022/01/17 07:32:37;;;;;;;34.08;4.95;;;6.30;99.90;;;;;;5081616;28;20146;-69
2022/01/17 07:35:05;;;;;;;31.63;4.57;;;6.30;99.90;;;;;;5055673;28;261965;-69
2022/01/17 07:37:31;;;;;;;31.88;4.50;;;6.30;99.90;;;;;;5073220;28;20073;-69
2022/01/17 07:39:57;;;;;;;42.38;5.18;;;6.30;99.90;;;;;;5057283;28;251215;-69
2022/01/17 07:42:24;;;;;;;32.47;4.55;;;6.30;99.90;;;;;;5080731;28;20048;-69
2022/01/17 07:44:54;;;;;;;29.75;5.30;;;6.30;99.90;;;;;;5051945;28;197875;-69
2022/01/17 07:47:38;;;;;;;39.67;5.82;;;6.30;99.90;;;;;;5088392;28;20405;-69
2022/01/17 07:50:06;;;;;;;38.95;5.13;;;6.40;99.90;;;;;;5054284;28;163297;-69
2022/01/17 07:52:33;;;;;;;32.10;4.97;;;6.30;99.90;;;;;;5062135;28;20055;-69
2022/01/17 07:54:59;;;;;;;34.85;4.45;;;6.40;99.90;;;;;;5060844;27;250222;-69
2022/01/17 07:57:26;;;;;;;35.20;4.75;;;6.40;99.90;;;;;;5073461;28;20489;-69
2022/01/17 07:59:52;;;;;;;39.45;5.30;;;6.40;99.90;;;;;;5045018;28;78239;-69
2022/01/17 08:02:18;;;;;;;35.90;5.43;;;6.40;99.90;;;;;;5079568;28;20071;-69
2022/01/17 08:04:44;;;;;;;43.70;4.63;;;6.40;99.90;;;;;;5051097;28;253969;-68
2022/01/17 08:07:10;;;;;;;38.58;4.93;;;6.40;99.90;;;;;;5087184;28;20519;-69
2022/01/17 08:09:36;;;;;;;38.10;5.32;;;6.50;99.90;;;;;;5057520;28;20048;-68
2022/01/17 08:12:05;;;;;;;38.72;4.60;;;6.50;99.90;;;;;;5065581;28;20071;-69
2022/01/17 08:14:31;;;;;;;35.63;5.38;;;6.50;99.90;;;;;;5047145;28;52251;-69
2022/01/17 08:16:58;;;;;;;35.97;4.43;;;6.50;99.90;;;;;;5074859;28;20058;-68
2022/01/17 08:19:24;;;;;;;45.15;6.03;;;6.50;99.90;;;;;;5055460;28;273410;-68
2022/01/17 08:21:54;;;;;;;36.88;4.70;;;6.50;99.90;;;;;;5074872;28;20048;-67
2022/01/17 08:24:21;;;;;;;35.33;5.32;;;6.60;99.90;;;;;;5064729;28;253116;-69
2022/01/17 08:26:48;;;;;;;35.13;4.32;;;6.60;99.90;;;;;;5082625;28;20067;-69
2022/01/17 08:29:14;;;;;;;40.45;5.40;;;6.60;99.90;;;;;;5038763;28;59791;-69
2022/01/17 08:31:45;;;;;;;43.17;5.15;;;6.60;99.90;;;;;;5081108;28;20055;-69
2022/01/17 08:34:13;;;;;;;39.33;4.90;;;6.70;99.90;;;;;;5057785;28;271095;-69
2022/01/17 08:36:40;;;;;;;41.63;4.93;;;6.80;99.90;;;;;;5056162;28;20059;-69
2022/01/17 08:39:07;;;;;;;30.70;4.57;;;6.80;99.90;;;;;;5055774;28;264220;-68
2022/01/17 08:41:34;;;;;;;43.17;5.40;;;6.80;99.90;;;;;;5074643;28;20052;-69
2022/01/17 08:44:00;;;;;;;34.30;4.43;;;6.80;99.90;;;;;;5063207;28;266877;-68
2022/01/17 08:46:26;;;;;;;44.78;5.10;;;6.80;99.90;;;;;;5086881;28;20404;-69
2022/01/17 08:48:53;;;;;;;40.58;4.95;;;6.90;99.90;;;;;;5052433;28;260275;-69
2022/01/17 08:51:19;;;;;;;39.53;5.18;;;6.90;99.90;;;;;;5085297;28;20043;-68
2022/01/17 08:53:45;;;;;;;33.25;4.88;;;6.90;99.90;;;;;;5060468;28;254245;-69
2022/01/17 08:56:11;;;;;;;35.60;4.70;;;6.90;99.90;;;;;;5055654;28;20147;-69
2022/01/17 08:58:38;;;;;;;32.25;4.90;;;7.00;99.90;;;;;;5057836;28;270459;-70
2022/01/17 09:01:04;;;;;;;43.05;5.13;;;7.00;99.90;;;;;;5055485;28;20044;-69
2022/01/17 09:03:30;;;;;;;36.78;5.22;;;7.00;99.90;;;;;;5065755;28;20048;-68
2022/01/17 09:05:56;;;;;;;35.25;4.45;;;7.00;99.90;;;;;;5022923;28;180793;-70
2022/01/17 09:08:23;;;;;;;40.08;5.15;;;7.10;99.90;;;;;;5086817;28;20039;-69
2022/01/17 09:10:51;;;;;;;41.95;5.18;;;7.10;99.90;;;;;;5046008;28;231487;-70
2022/01/17 09:13:18;;;;;;;43.08;5.03;;;7.20;99.90;;;;;;5095759;22;20072;-68
2022/01/17 09:15:45;;;;;;;38.08;5.07;;;7.30;99.90;;;;;;5038931;28;96530;-68
2022/01/17 09:18:14;;;;;;;43.45;4.97;;;7.30;99.90;;;;;;5060120;28;20049;-70
2022/01/17 09:20:40;;;;;;;37.40;4.88;;;7.40;99.90;;;;;;5025469;28;30493;-70
2022/01/17 09:23:07;;;;;;;41.13;5.18;;;7.50;99.90;;;;;;5044340;28;20064;-70
2022/01/17 09:25:34;;;;;;;40.17;5.22;;;7.60;99.90;;;;;;5021537;28;28462;-70
2022/01/17 09:28:00;;;;;;;34.88;5.50;;;7.70;99.90;;;;;;5034185;28;20052;-70
2022/01/17 09:30:26;;;;;;;33.65;4.70;;;7.70;99.90;;;;;;5019614;28;214935;-70
2022/01/17 09:32:53;;;;;;;42.13;6.35;;;7.80;99.90;;;;;;5044929;28;20059;-70
2022/01/17 09:35:19;;;;;;;40.15;5.45;;;7.90;99.90;;;;;;5028824;28;220148;-70
2022/01/17 09:37:45;;;;;;;36.50;5.20;;;8.00;99.90;;;;;;5070603;28;20530;-68
2022/01/17 09:40:12;;;;;;;40.28;5.68;;;8.10;99.90;;;;;;5038441;28;262589;-69
2022/01/17 09:42:38;;;;;;;34.75;5.25;;;8.20;99.90;;;;;;5061402;28;20422;-69
2022/01/17 09:45:11;;;;;;;42.63;5.20;;;8.20;99.90;;;;;;5032301;28;269819;-68
2022/01/17 09:47:39;;;;;;;30.92;5.68;;;8.20;99.90;;;;;;5051233;28;20394;-69
2022/01/17 09:50:09;;;;;;;44.95;5.50;;;8.30;99.90;;;;;;5025180;28;43882;-69
2022/01/17 09:52:49;;;;;;;41.80;5.07;;;8.30;99.90;;;;;;5063596;28;20669;-69
2022/01/17 09:55:22;;;;;;;41.72;6.05;;;8.40;99.90;;;;;;5040509;28;41867;-69
2022/01/17 09:57:56;;;;;;;34.42;5.68;;;8.50;99.90;;;;;;5068559;28;20532;-69
2022/01/17 10:00:26;;;;;;;42.25;6.70;;;8.50;99.90;;;;;;5046335;28;264734;-69
2022/01/17 10:02:55;;;;;;;39.65;6.50;;;8.60;99.90;;;;;;5061176;28;20052;-69
2022/01/17 10:05:22;;;;;;;40.97;5.90;;;8.70;99.90;;;;;;5015956;28;103466;-69
2022/01/17 10:08:04;;;;;;;46.55;6.70;;;8.70;99.90;;;;;;5035383;28;20052;-69
2022/01/17 10:10:46;;;;;;;41.05;6.43;;;8.80;99.90;;;;;;5033204;28;258220;-68
2022/01/17 10:13:23;;;;;;;42.90;6.10;;;8.80;99.90;;;;;;5047497;28;20523;-69
2022/01/17 10:16:00;;;;;;;43.55;6.32;;;8.90;99.90;;;;;;5046203;28;201076;-69
2022/01/17 10:18:54;;;;;;;43.13;6.15;;;9.00;99.90;;;;;;5051316;28;20044;-68
2022/01/17 10:21:30;;;;;;;40.35;6.28;;;9.00;99.90;;;;;;5024749;28;20041;-69
2022/01/17 10:24:15;;;;;;;43.08;5.57;;;9.00;99.90;;;;;;5022372;28;252094;-69
2022/01/17 10:35:33;;;;;;;38.47;5.50;;;9.20;99.90;;;;;;5034379;28;198635;-69
2022/01/17 10:38:10;;;;;;;39.75;5.85;;;9.20;99.90;;;;;;5051276;28;20056;-70
2022/01/17 10:40:41;;;;;;;44.65;6.38;;;9.20;99.90;;;;;;5035446;28;175738;-69
2022/01/17 10:43:19;;;;;;;47.60;6.85;;;9.30;99.90;;;;;;5044144;28;20052;-69
2022/01/17 10:45:46;;;;;;;40.97;6.25;;;9.30;99.90;;;;;;5022051;28;251511;-69
2022/01/17 10:48:13;;;;;;;40.20;6.63;;;9.30;99.90;;;;;;5037707;28;20052;-69
2022/01/17 10:50:43;;;;;;;49.95;6.63;;;9.20;99.90;;;;;;5037311;28;277223;-69
2022/01/17 10:53:12;;;;;;;46.05;6.38;;;9.20;99.90;;;;;;5046649;28;20044;-69
2022/01/17 10:55:50;;;;;;;41.03;7.13;;;9.20;99.90;;;;;;5032465;28;203728;-69
2022/01/17 10:58:26;;;;;;;39.65;6.53;;;9.10;99.90;;;;;;5070570;28;20055;-69
2022/01/17 11:01:04;;;;;;;40.28;6.13;;;9.10;99.90;;;;;;5040927;28;46855;-69
2022/01/17 11:03:33;;;;;;;45.15;6.85;;;9.20;99.90;;;;;;5040869;28;20041;-69
2022/01/17 11:06:05;;;;;;;44.45;6.78;;;9.20;99.90;;;;;;5022616;28;160177;-69
2022/01/17 11:08:34;;;;;;;40.08;6.07;;;9.20;99.90;;;;;;5049728;28;20063;-68
2022/01/17 11:11:05;;;;;;;49.25;7.47;;;9.20;99.90;;;;;;5020924;28;188119;-69
2022/01/17 11:13:33;;;;;;;48.30;7.28;;;9.20;99.90;;;;;;5066440;28;20060;-69
2022/01/17 11:16:04;;;;;;;40.63;5.82;;;9.30;99.90;;;;;;5056846;28;191507;-69
2022/01/17 11:18:31;;;;;;;41.95;6.40;;;9.40;99.90;;;;;;5069739;28;20049;-69
2022/01/17 11:20:58;;;;;;;43.58;7.20;;;9.40;99.90;;;;;;5052566;28;266868;-69
2022/01/17 11:23:25;;;;;;;45.33;6.95;;;9.40;99.90;;;;;;5042119;28;20127;-69
2022/01/17 11:25:55;;;;;;;52.60;7.10;;;9.50;99.90;;;;;;5037322;28;263513;-69
2022/01/17 11:28:32;;;;;;;44.53;7.15;;;9.50;99.90;;;;;;5054897;28;20055;-69
2022/01/17 11:31:00;;;;;;;50.00;7.18;;;9.50;99.90;;;;;;5020283;28;162231;-69
2022/01/17 11:33:28;;;;;;;41.88;6.20;;;9.40;99.90;;;;;;5033580;28;20060;-69
2022/01/17 11:35:55;;;;;;;51.05;7.70;;;9.40;99.90;;;;;;5048438;28;258067;-69
2022/01/17 11:38:26;;;;;;;53.55;7.40;;;9.50;99.90;;;;;;5053343;28;20076;-69
2022/01/17 11:40:53;;;;;;;41.30;7.72;;;9.60;99.90;;;;;;5049661;28;262780;-70
2022/01/17 11:43:33;;;;;;;49.85;7.22;;;9.60;99.90;;;;;;5041662;28;20151;-69
2022/01/17 11:46:03;;;;;;;55.22;7.97;;;9.70;99.90;;;;;;5018058;28;200192;-69
2022/01/17 11:48:31;;;;;;;55.45;8.00;;;9.80;99.90;;;;;;5037869;28;20059;-69
2022/01/17 11:51:11;;;;;;;46.72;6.88;;;9.90;99.90;;;;;;5023931;28;80883;-69
2022/01/17 11:53:40;;;;;;;40.47;6.55;;;10.00;99.90;;;;;;5054257;28;269334;-69
2022/01/17 11:56:07;;;;;;;39.13;6.45;;;9.90;99.90;;;;;;5054382;28;20788;-69
2022/01/17 11:58:46;;;;;;;39.15;6.13;;;9.90;99.90;;;;;;5071970;28;20044;-69
2022/01/17 12:01:21;;;;;;;37.92;7.20;;;10.00;99.90;;;;;;5007268;28;20049;-69
2022/01/17 12:03:55;;;;;;;41.38;6.07;;;9.90;99.90;;;;;;5020198;28;260554;-69
2022/01/17 12:06:33;;;;;;;40.75;6.88;;;9.90;99.90;;;;;;5052526;28;20049;-70
2022/01/17 12:09:21;;;;;;;41.20;6.82;;;9.80;99.90;;;;;;5032883;28;250361;-69
2022/01/17 12:12:07;;;;;;;41.85;5.93;;;9.80;99.90;;;;;;5038316;28;20405;-69
2022/01/17 12:14:42;;;;;;;45.78;7.43;;;9.80;99.90;;;;;;5034872;28;144879;-69
2022/01/17 12:17:20;;;;;;;41.88;6.13;;;9.70;99.90;;;;;;5052368;28;20059;-69
2022/01/17 12:20:06;;;;;;;37.83;7.03;;;9.90;99.90;;;;;;5052666;28;146075;-69
2022/01/17 12:22:39;;;;;;;41.53;7.05;;;9.90;99.90;;;;;;5045756;28;20804;-69
2022/01/17 12:25:30;;;;;;;44.08;7.03;;;10.00;99.90;;;;;;5039192;28;28288;-69
2022/01/17 12:28:08;;;;;;;42.05;6.50;;;10.00;99.90;;;;;;5032557;28;21315;-69
2022/01/17 12:30:49;;;;;;;42.35;7.10;;;10.00;99.90;;;;;;5035667;28;254896;-69
2022/01/17 12:33:39;;;;;;;40.88;6.57;;;9.90;99.90;;;;;;5067963;28;20046;-69
2022/01/17 12:36:29;;;;;;;44.83;6.50;;;10.00;99.90;;;;;;5041181;28;20413;-69
2022/01/17 12:39:21;;;;;;;39.72;5.90;;;9.90;99.90;;;;;;5049475;28;252494;-69
2022/01/17 12:41:50;;;;;;;35.65;6.25;;;9.80;99.90;;;;;;5067367;28;20056;-69
2022/01/17 12:44:22;;;;;;;43.80;6.60;;;9.80;99.90;;;;;;5034406;28;159151;-69
2022/01/17 12:47:00;;;;;;;41.53;7.18;;;9.70;99.90;;;;;;5052111;28;20060;-69
2022/01/17 12:49:28;;;;;;;37.35;6.40;;;9.70;99.90;;;;;;5034460;28;264291;-69
2022/01/17 12:51:57;;;;;;;39.65;7.15;;;9.70;99.90;;;;;;5057351;28;20053;-69
2022/01/17 12:54:33;;;;;;;42.83;6.95;;;9.70;99.90;;;;;;5019218;28;152328;-69
2022/01/17 12:57:01;;;;;;;39.33;6.28;;;9.60;99.90;;;;;;5050525;28;20539;-69
2022/01/17 12:59:27;;;;;;;40.72;5.78;;;9.70;99.90;;;;;;5049580;28;255990;-69
2022/01/17 13:02:00;;;;;;;37.13;6.13;;;9.60;99.90;;;;;;5067071;28;20063;-69
2022/01/17 13:04:29;;;;;;;39.75;6.22;;;9.60;99.90;;;;;;5020852;28;263410;-69
2022/01/17 13:06:55;;;;;;;42.35;6.32;;;9.60;99.90;;;;;;5024890;28;20044;-69
2022/01/17 13:09:24;;;;;;;44.00;7.05;;;9.60;99.90;;;;;;5033516;28;270346;-69